Time;durP1;ratioP1;P1;durP2;ratioP2;P2;SDS_P1;SDS_P2;PMS_P1;PMS_P2;Temp;Humidity;BMP_temperature;BMP_pressure;BME280_temperature;BME280_humidity;BME280_pressure;Samples;Min_cycle;Max_cycle;Signal;HPM_P1;HPM_P2
2021/07/04 00:00:46;;;;;;;9.43;5.07;;;;;;;18.32;83.95;98191.00;5104096;28;20088;-62
2021/07/04 00:03:13;;;;;;;7.68;4.78;;;;;;;18.31;83.98;98189.25;5104038;28;20079;-62
2021/07/04 00:05:44;;;;;;;6.13;4.95;;;;;;;18.28;83.97;98184.09;5104028;28;20326;-62
2021/07/04 00:08:13;;;;;;;8.20;5.80;;;;;;;18.30;83.75;98182.22;5104084;28;20079;-62
2021/07/04 00:10:54;;;;;;;8.00;5.03;;;;;;;18.29;83.66;98176.00;5103870;28;20024;-62
2021/07/04 00:13:20;;;;;;;7.40;5.45;;;;;;;18.21;84.55;98182.72;5103961;28;20051;-62
2021/07/04 00:15:46;;;;;;;10.90;5.57;;;;;;;18.14;84.95;98182.25;5103925;28;20027;-62
2021/07/04 00:18:16;;;;;;;9.70;5.30;;;;;;;18.16;84.33;98175.00;5104748;28;20319;-62
2021/07/04 00:20:43;;;;;;;7.15;5.50;;;;;;;18.22;84.61;98173.81;5108002;28;20093;-62
2021/07/04 00:23:09;;;;;;;7.93;5.18;;;;;;;18.24;84.42;98182.56;5107825;28;20100;-62
2021/07/04 00:25:35;;;;;;;12.27;6.07;;;;;;;18.26;84.59;98175.34;5107873;28;20032;-62
2021/07/04 00:28:00;;;;;;;11.07;5.30;;;;;;;18.33;84.56;98174.03;5107732;28;20028;-62
2021/07/04 00:30:26;;;;;;;6.90;5.10;;;;;;;18.36;84.36;98171.22;5107766;28;20073;-62
2021/07/04 00:32:52;;;;;;;8.15;5.78;;;;;;;18.37;84.38;98178.28;5107632;28;20024;-62
2021/07/04 00:35:20;;;;;;;11.43;5.18;;;;;;;18.42;84.44;98176.22;5107672;28;20035;-62
2021/07/04 00:37:46;;;;;;;9.63;5.63;;;;;;;18.46;84.39;98172.41;5107620;28;20027;-62
2021/07/04 00:40:13;;;;;;;7.22;5.43;;;;;;;18.53;83.80;98174.66;5107547;28;20034;-62
2021/07/04 00:42:39;;;;;;;8.65;5.63;;;;;;;18.54;84.18;98178.19;5107451;28;20359;-62
2021/07/04 00:45:07;;;;;;;9.35;5.63;;;;;;;18.54;83.94;98170.19;5107728;28;20028;-62
2021/07/04 00:47:33;;;;;;;9.68;5.50;;;;;;;18.61;83.57;98171.53;5107376;28;20031;-62
2021/07/04 00:49:58;;;;;;;7.80;5.43;;;;;;;18.56;83.72;98168.28;5107382;28;20379;-62
2021/07/04 00:52:24;;;;;;;9.07;5.57;;;;;;;18.54;83.95;98167.53;5107167;28;20331;-62
2021/07/04 00:54:50;;;;;;;7.63;5.45;;;;;;;18.50;83.99;98157.97;5107272;28;20024;-62
2021/07/04 00:57:15;;;;;;;7.72;5.85;;;;;;;18.42;84.33;98161.06;5107193;28;20035;-62
2021/07/04 00:59:40;;;;;;;8.90;6.32;;;;;;;18.40;84.21;98151.47;5107221;28;20055;-62
2021/07/04 01:02:06;;;;;;;12.05;5.85;;;;;;;18.42;84.02;98162.91;5107194;28;20040;-62
2021/07/04 01:04:31;;;;;;;10.48;6.03;;;;;;;18.34;84.82;98162.44;5107088;28;20083;-62
2021/07/04 01:06:57;;;;;;;8.50;6.10;;;;;;;18.27;85.20;98161.94;5107355;28;20088;-62
2021/07/04 01:09:23;;;;;;;8.40;5.57;;;;;;;18.14;85.33;98162.72;5107070;28;20024;-62
2021/07/04 01:11:49;;;;;;;10.55;6.72;;;;;;;18.11;85.66;98170.88;5106888;28;20032;-62
2021/07/04 01:14:14;;;;;;;7.95;6.07;;;;;;;18.09;85.50;98164.78;5106938;28;20319;-62
2021/07/04 01:16:40;;;;;;;15.15;5.88;;;;;;;18.12;85.23;98173.47;5106831;28;20024;-62
2021/07/04 01:19:07;;;;;;;7.70;5.82;;;;;;;18.07;86.33;98170.19;5106840;28;20028;-62
2021/07/04 01:21:32;;;;;;;10.52;5.75;;;;;;;18.09;84.62;98167.44;5106751;28;20043;-62
2021/07/04 01:23:59;;;;;;;7.45;5.25;;;;;;;18.19;84.81;98163.34;5107017;28;20065;-62
2021/07/04 01:26:24;;;;;;;9.48;5.85;;;;;;;18.15;85.17;98161.78;5106696;28;20024;-62
2021/07/04 01:28:50;;;;;;;9.63;6.22;;;;;;;18.11;86.05;98161.09;5106656;28;20031;-62
2021/07/04 01:31:15;;;;;;;7.28;6.00;;;;;;;18.16;85.27;98158.19;5105937;28;20024;-62
2021/07/04 01:33:41;;;;;;;9.18;6.82;;;;;;;18.18;85.10;98161.59;5106581;28;20385;-62
2021/07/04 01:36:06;;;;;;;7.65;6.07;;;;;;;18.17;85.35;98162.56;5103161;28;20048;-62
2021/07/04 01:38:32;;;;;;;9.50;6.50;;;;;;;18.16;85.61;98163.50;5086145;28;20025;-62
2021/07/04 01:40:58;;;;;;;11.68;6.93;;;;;;;18.07;85.95;98161.38;5086082;28;20022;-62
2021/07/04 01:43:24;;;;;;;10.27;6.78;;;;;;;18.10;85.86;98161.19;5085999;28;20319;-62
2021/07/04 01:45:50;;;;;;;10.18;6.70;;;;;;;18.10;86.08;98153.19;5086005;28;20028;-62
2021/07/04 01:48:15;;;;;;;10.98;7.10;;;;;;;18.03;85.80;98157.16;5085996;28;20070;-62
2021/07/04 01:50:45;;;;;;;9.70;6.20;;;;;;;18.01;85.99;98153.72;5085717;28;20028;-62
2021/07/04 01:53:11;;;;;;;10.15;7.25;;;;;;;17.96;86.49;98151.31;5085942;28;20033;-62
2021/07/04 01:55:36;;;;;;;12.40;6.75;;;;;;;17.97;86.32;98146.84;5085863;28;20033;-62
2021/07/04 01:58:02;;;;;;;9.05;6.90;;;;;;;17.96;86.21;98148.66;5085849;28;20342;-62
2021/07/04 02:00:30;;;;;;;8.48;6.90;;;;;;;17.96;85.98;98147.78;5085847;28;20024;-62
2021/07/04 02:02:58;;;;;;;10.27;7.15;;;;;;;17.96;86.34;98156.63;5085901;28;20024;-62
2021/07/04 02:05:24;;;;;;;14.35;7.18;;;;;;;17.98;86.12;98143.22;5085583;28;20092;-62
2021/07/04 02:07:50;;;;;;;9.85;7.28;;;;;;;17.98;86.39;98143.22;5085558;28;20024;-62
2021/07/04 02:10:22;;;;;;;10.82;7.05;;;;;;;18.00;86.18;98149.34;5085521;28;20058;-62
2021/07/04 02:12:48;;;;;;;;;;;;;;;18.01;86.33;98143.06;5085895;28;20208;-62
2021/07/04 02:15:19;;;;;;;10.95;6.72;;;;;;;17.99;86.41;98139.63;5085445;28;19915;-62
2021/07/04 02:17:45;;;;;;;10.30;6.87;;;;;;;17.96;86.83;98139.78;5085495;28;20044;-62
2021/07/04 02:20:30;;;;;;;8.80;6.80;;;;;;;17.97;87.15;98136.19;5085348;28;20275;-62
2021/07/04 02:22:55;;;;;;;9.40;6.75;;;;;;;17.95;87.02;98130.09;5085341;28;20328;-62
2021/07/04 02:25:21;;;;;;;7.82;6.28;;;;;;;17.94;86.81;98137.22;5085262;28;20020;-62
2021/07/04 02:27:46;;;;;;;8.23;6.97;;;;;;;17.91;86.79;98136.53;5085197;28;20017;-62
2021/07/04 02:30:12;;;;;;;10.27;6.68;;;;;;;17.88;87.20;98136.72;5085136;28;20048;-62
2021/07/04 02:32:37;;;;;;;9.10;6.63;;;;;;;17.92;86.67;98139.13;5085000;28;20021;-62
2021/07/04 02:35:04;;;;;;;8.38;6.90;;;;;;;17.88;86.83;98131.38;5085045;28;20223;-62
2021/07/04 02:37:33;;;;;;;11.30;7.45;;;;;;;17.86;87.26;98138.59;5084986;28;20338;-62
2021/07/04 02:39:59;;;;;;;11.27;8.00;;;;;;;17.77;87.74;98134.66;5085305;28;20082;-63
2021/07/04 02:42:24;;;;;;;10.73;7.68;;;;;;;17.74;87.95;98144.59;5083951;28;20020;-63
2021/07/04 02:44:49;;;;;;;11.10;7.18;;;;;;;17.71;87.88;98142.09;5084844;28;20020;-63
2021/07/04 02:47:15;;;;;;;11.20;7.18;;;;;;;17.68;87.84;98136.97;5084820;28;20020;-63
2021/07/04 02:49:40;;;;;;;9.93;7.18;;;;;;;17.63;88.17;98136.34;5084764;28;20024;-62
2021/07/04 02:52:06;;;;;;;12.85;7.60;;;;;;;17.58;87.87;98138.41;5084496;28;20054;-62
2021/07/04 02:54:31;;;;;;;10.48;7.63;;;;;;;17.60;87.96;98147.16;5084896;28;20020;-62
2021/07/04 02:56:56;;;;;;;10.90;6.90;;;;;;;17.57;88.00;98148.22;5084710;28;20335;-62
2021/07/04 02:59:22;;;;;;;9.15;6.82;;;;;;;17.60;87.98;98131.22;5084602;28;20035;-62
2021/07/04 03:01:47;;;;;;;11.13;7.63;;;;;;;17.49;88.10;98138.94;5084568;28;20016;-62
2021/07/04 03:04:13;;;;;;;12.07;7.80;;;;;;;17.40;88.24;98139.41;5084490;28;20027;-62
2021/07/04 03:06:38;;;;;;;8.60;7.25;;;;;;;17.37;88.34;98142.22;5084478;28;20023;-62
2021/07/04 03:09:04;;;;;;;10.50;7.20;;;;;;;17.34;88.56;98137.06;5084431;28;20027;-62
2021/07/04 03:11:29;;;;;;;10.85;7.10;;;;;;;17.28;88.37;98131.13;5084308;28;20032;-62
2021/07/04 03:13:55;;;;;;;10.45;7.68;;;;;;;17.23;88.47;98133.19;5084382;28;20024;-62
2021/07/04 03:16:20;;;;;;;10.77;7.25;;;;;;;17.17;88.71;98144.16;5084322;28;20026;-62
2021/07/04 03:18:45;;;;;;;12.13;7.68;;;;;;;17.14;88.79;98139.00;5084284;28;20070;-62
2021/07/04 03:21:11;;;;;;;9.07;7.15;;;;;;;17.09;88.68;98141.03;5084486;28;20017;-62
2021/07/04 03:23:37;;;;;;;11.38;6.60;;;;;;;17.12;88.83;98146.19;5084233;28;20016;-62
2021/07/04 03:26:02;;;;;;;11.45;7.28;;;;;;;17.05;88.79;98144.78;5084210;28;20082;-62
2021/07/04 03:28:28;;;;;;;11.43;6.80;;;;;;;17.03;88.83;98141.34;5084189;28;20017;-62
2021/07/04 03:30:53;;;;;;;9.65;7.78;;;;;;;17.02;89.15;98139.63;5084103;28;20039;-62
2021/07/04 03:33:18;;;;;;;11.45;7.30;;;;;;;17.03;89.14;98138.69;5084159;28;20078;-62
2021/07/04 03:35:44;;;;;;;11.10;8.13;;;;;;;17.04;89.66;98132.44;5084098;28;20047;-62
2021/07/04 03:38:10;;;;;;;11.25;7.78;;;;;;;17.10;89.05;98137.44;5084101;28;20315;-62
2021/07/04 03:40:35;;;;;;;9.18;7.03;;;;;;;17.16;88.95;98139.78;5084043;28;20016;-62
2021/07/04 03:43:00;;;;;;;9.27;7.55;;;;;;;17.16;88.83;98142.44;5083922;28;20265;-62
2021/07/04 03:45:26;;;;;;;9.02;7.97;;;;;;;17.08;88.69;98133.13;5084086;28;20020;-62
2021/07/04 03:47:51;;;;;;;11.90;7.40;;;;;;;17.10;89.00;98134.78;5083950;28;20261;-62
2021/07/04 03:50:17;;;;;;;9.65;8.02;;;;;;;17.12;89.04;98132.03;5083973;28;20017;-62
2021/07/04 03:52:43;;;;;;;10.88;7.75;;;;;;;17.17;88.62;98136.16;5083395;28;20082;-62
2021/07/04 03:55:09;;;;;;;12.10;7.60;;;;;;;17.28;88.71;98141.75;5083880;28;20224;-62
2021/07/04 03:57:34;;;;;;;13.18;7.88;;;;;;;17.30;88.81;98138.19;5086476;28;20103;-62
2021/07/04 04:00:04;;;;;;;16.63;8.13;;;;;;;17.31;88.74;98142.53;5095339;28;20023;-62
2021/07/04 04:02:30;;;;;;;8.57;6.60;;;;;;;17.36;88.63;98148.47;5103954;28;20020;-62
2021/07/04 04:04:57;;;;;;;14.52;8.00;;;;;;;17.31;88.74;98146.06;5104083;28;20066;-62
2021/07/04 04:07:23;;;;;;;9.90;7.53;;;;;;;17.37;88.66;98148.38;5103988;28;20046;-62
2021/07/04 04:09:51;;;;;;;18.42;8.40;;;;;;;17.38;88.23;98141.28;5104001;28;20031;-62
2021/07/04 04:12:17;;;;;;;10.02;6.85;;;;;;;17.31;88.30;98145.22;5104128;28;20207;-62
2021/07/04 04:14:42;;;;;;;10.63;7.50;;;;;;;17.28;88.08;98146.25;5103917;28;20047;-62
2021/07/04 04:17:08;;;;;;;14.25;7.18;;;;;;;17.17;88.32;98148.59;5103927;28;20303;-62
2021/07/04 04:19:33;;;;;;;14.43;8.60;;;;;;;17.16;88.60;98152.22;5103890;28;20020;-62
2021/07/04 04:21:59;;;;;;;8.85;7.38;;;;;;;17.20;88.73;98149.31;5103898;28;20012;-62
2021/07/04 04:24:25;;;;;;;11.63;7.25;;;;;;;17.31;88.85;98145.22;5104122;28;20020;-62
2021/07/04 04:26:50;;;;;;;8.10;6.80;;;;;;;17.38;88.84;98143.94;5103781;28;20019;-62
2021/07/04 04:29:16;;;;;;;9.27;7.55;;;;;;;17.41;88.83;98143.75;5103831;28;20031;-62
2021/07/04 04:31:41;;;;;;;10.23;7.93;;;;;;;17.45;89.08;98137.34;5103696;28;20211;-62
2021/07/04 04:34:06;;;;;;;11.07;7.10;;;;;;;17.53;88.68;98151.13;5103745;28;20024;-62
2021/07/04 04:36:32;;;;;;;14.27;8.13;;;;;;;17.53;88.82;98145.78;5103698;28;20031;-62
2021/07/04 04:38:57;;;;;;;12.80;8.05;;;;;;;17.62;89.27;98140.81;5103737;28;20024;-62
2021/07/04 04:41:23;;;;;;;10.30;7.45;;;;;;;17.68;88.88;98137.81;5103648;28;20073;-62
2021/07/04 04:43:48;;;;;;;13.45;8.52;;;;;;;17.75;88.60;98141.00;5103648;28;20031;-62
2021/07/04 04:46:14;;;;;;;15.23;9.10;;;;;;;17.79;88.67;98139.88;5103625;28;20019;-62
2021/07/04 04:48:40;;;;;;;12.13;7.75;;;;;;;17.82;88.51;98137.94;5103634;28;20024;-62
2021/07/04 04:51:06;;;;;;;10.07;6.45;;;;;;;17.83;88.21;98136.09;5103306;28;20035;-63
2021/07/04 04:53:32;;;;;;;8.77;6.82;;;;;;;17.81;87.86;98130.84;5103830;28;20215;-63
2021/07/04 04:55:57;;;;;;;13.93;7.30;;;;;;;17.83;88.33;98128.13;5103544;28;20052;-63
2021/07/04 04:58:23;;;;;;;11.63;7.60;;;;;;;17.73;88.31;98110.94;5103816;28;20233;-63
2021/07/04 05:00:49;;;;;;;10.43;7.40;;;;;;;17.86;87.82;98114.63;5103737;28;20028;-63
2021/07/04 05:03:14;;;;;;;13.93;8.20;;;;;;;17.85;88.15;98110.25;5103457;28;20211;-63
2021/07/04 05:05:39;;;;;;;13.45;8.02;;;;;;;17.82;87.86;98107.78;5104868;28;20027;-63
2021/07/04 05:08:05;;;;;;;13.52;7.95;;;;;;;17.85;88.36;98112.91;5107027;28;20019;-63
2021/07/04 05:10:30;;;;;;;10.23;7.80;;;;;;;17.93;87.67;98113.34;5107007;28;20073;-63
2021/07/04 05:12:56;;;;;;;14.20;9.18;;;;;;;17.95;88.32;98111.44;5106860;28;20028;-63
2021/07/04 05:15:22;;;;;;;14.13;8.77;;;;;;;18.03;88.51;98109.22;5106939;28;20075;-63
2021/07/04 05:17:47;;;;;;;12.60;7.97;;;;;;;18.00;88.07;98104.06;5106904;28;20372;-63
2021/07/04 05:20:13;;;;;;;12.70;8.15;;;;;;;18.09;88.30;98115.03;5106847;28;20020;-63
2021/07/04 05:22:39;;;;;;;10.80;7.85;;;;;;;18.15;88.18;98119.16;5107070;28;20203;-63
2021/07/04 05:25:06;;;;;;;8.10;6.60;;;;;;;18.22;88.03;98115.22;5106707;28;20031;-63
2021/07/04 05:27:31;;;;;;;14.23;7.55;;;;;;;18.18;87.84;98113.66;5106735;28;20028;-63
2021/07/04 05:29:57;;;;;;;10.55;8.40;;;;;;;18.24;87.99;98113.28;5106674;28;20084;-63
2021/07/04 05:32:23;;;;;;;10.02;7.95;;;;;;;18.26;87.84;98108.75;5106463;28;20028;-63
2021/07/04 05:34:48;;;;;;;12.10;8.93;;;;;;;18.27;88.09;98107.78;5106601;28;20031;-63
2021/07/04 05:37:15;;;;;;;11.23;8.85;;;;;;;18.30;87.96;98097.81;5106490;28;20020;-63
2021/07/04 05:39:40;;;;;;;15.10;9.68;;;;;;;18.39;88.38;98091.13;5106456;28;20196;-63
2021/07/04 05:42:06;;;;;;;12.88;9.68;;;;;;;18.43;87.58;98087.31;5106343;28;20027;-63
2021/07/04 05:44:31;;;;;;;11.25;9.13;;;;;;;18.48;87.56;98090.59;5106627;28;20048;-63
2021/07/04 05:46:57;;;;;;;11.05;9.43;;;;;;;18.58;87.43;98081.09;5106312;28;20020;-63
2021/07/04 05:49:23;;;;;;;14.82;10.63;;;;;;;18.65;87.51;98082.44;5106273;28;20024;-63
2021/07/04 05:51:48;;;;;;;14.93;9.65;;;;;;;18.85;86.87;98079.41;5105957;28;20036;-63
2021/07/04 05:54:15;;;;;;;12.73;9.05;;;;;;;18.97;86.38;98092.88;5106201;28;20019;-62
2021/07/04 05:56:40;;;;;;;15.18;10.38;;;;;;;19.02;86.92;98088.09;5106136;28;20358;-62
2021/07/04 05:59:06;;;;;;;11.65;9.35;;;;;;;19.13;86.25;98088.28;5106093;28;20020;-62
2021/07/04 06:01:31;;;;;;;13.02;9.90;;;;;;;19.19;86.27;98084.38;5106331;28;20020;-62
2021/07/04 06:03:57;;;;;;;14.85;10.00;;;;;;;19.21;86.08;98087.81;5105997;28;20323;-62
2021/07/04 06:06:22;;;;;;;16.65;9.68;;;;;;;19.17;86.47;98086.28;5105947;28;20020;-62
2021/07/04 06:08:48;;;;;;;12.88;9.63;;;;;;;19.22;86.65;98094.88;5105927;28;20161;-62
2021/07/04 06:11:13;;;;;;;10.65;8.93;;;;;;;19.22;87.08;98087.72;5106026;28;20023;-62
2021/07/04 06:13:39;;;;;;;12.65;9.35;;;;;;;19.28;86.36;98089.19;5105826;28;20070;-62
2021/07/04 06:16:04;;;;;;;14.38;10.00;;;;;;;19.40;85.93;98077.75;5105646;28;20024;-62
2021/07/04 06:18:30;;;;;;;10.55;7.68;;;;;;;19.48;84.76;98080.75;5105718;28;20024;-62
2021/07/04 06:20:55;;;;;;;13.40;10.05;;;;;;;19.51;84.86;98080.56;5105937;28;20019;-62
2021/07/04 06:23:21;;;;;;;12.75;9.73;;;;;;;19.55;85.71;98090.09;5105568;28;20311;-62
2021/07/04 06:25:47;;;;;;;12.93;8.70;;;;;;;19.57;84.64;98085.53;5105568;28;20020;-62
2021/07/04 06:28:12;;;;;;;10.73;6.65;;;;;;;19.56;82.36;98088.28;5105477;28;20024;-62
2021/07/04 06:30:38;;;;;;;15.85;9.98;;;;;;;19.60;85.45;98090.66;5105490;28;20028;-62
2021/07/04 06:33:03;;;;;;;14.57;9.57;;;;;;;19.66;85.66;98084.06;5105315;28;20027;-62
2021/07/04 06:35:29;;;;;;;13.73;9.90;;;;;;;19.63;84.06;98074.47;5105413;28;20298;-62
2021/07/04 06:37:54;;;;;;;13.20;10.02;;;;;;;19.61;84.44;98083.53;5105241;28;20019;-62
2021/07/04 06:40:20;;;;;;;13.65;10.35;;;;;;;19.66;85.15;98090.28;5105287;28;20046;-62
2021/07/04 06:42:46;;;;;;;12.13;9.10;;;;;;;19.72;84.15;98089.88;5105134;28;20020;-62
2021/07/04 06:45:12;;;;;;;13.20;9.02;;;;;;;19.75;84.41;98080.81;5105206;28;20024;-62
2021/07/04 06:47:42;;;;;;;11.15;9.07;;;;;;;19.77;83.67;98085.09;5105083;28;20020;-62
2021/07/04 06:50:08;;;;;;;13.90;8.95;;;;;;;19.82;84.15;98085.66;5105145;28;20242;-62
2021/07/04 06:52:34;;;;;;;11.75;9.10;;;;;;;19.84;83.13;98088.25;5104811;28;20323;-62
2021/07/04 06:54:59;;;;;;;10.82;9.10;;;;;;;19.80;83.60;98082.22;5104957;28;20084;-62
2021/07/04 06:57:28;;;;;;;14.40;9.35;;;;;;;19.78;84.13;98075.28;5105037;28;20027;-62
2021/07/04 06:59:58;;;;;;;11.93;8.70;;;;;;;19.88;83.59;98069.25;5105077;28;20020;-62
2021/07/04 07:02:25;;;;;;;10.88;8.73;;;;;;;20.14;82.75;98071.09;5104898;28;20330;-62
2021/07/04 07:04:51;;;;;;;11.23;8.27;;;;;;;20.40;81.15;98082.69;5105060;28;20024;-62
2021/07/04 07:07:18;;;;;;;14.15;9.15;;;;;;;20.72;80.39;98084.91;5104839;28;20046;-62
2021/07/04 07:09:43;;;;;;;9.75;8.50;;;;;;;20.70;79.36;98076.16;5103859;28;20016;-62
2021/07/04 07:12:09;;;;;;;14.45;8.63;;;;;;;20.66;80.06;98063.91;5104491;28;20024;-62
2021/07/04 07:14:34;;;;;;;9.77;7.68;;;;;;;20.79;80.41;98070.13;5104602;28;20024;-63
2021/07/04 07:17:00;;;;;;;7.75;6.82;;;;;;;20.96;76.51;98067.19;5091957;28;20024;-63
2021/07/04 07:19:25;;;;;;;9.70;7.47;;;;;;;21.27;76.87;98056.03;5103759;28;20249;-63
2021/07/04 07:21:50;;;;;;;9.48;6.95;;;;;;;21.48;76.48;98063.50;5103773;28;20016;-63
2021/07/04 07:24:16;;;;;;;10.38;6.55;;;;;;;21.50;75.12;98061.56;5104518;28;20043;-63
2021/07/04 07:26:41;;;;;;;10.02;7.07;;;;;;;21.27;75.88;98056.03;5104394;28;20024;-63
2021/07/04 07:29:07;;;;;;;11.27;7.95;;;;;;;21.03;76.33;98057.78;5103950;28;20042;-63
2021/07/04 07:31:35;;;;;;;11.07;7.55;;;;;;;20.95;76.93;98060.13;5104326;28;20039;-63
2021/07/04 07:34:01;;;;;;;7.18;5.68;;;;;;;20.82;73.41;98053.03;5104331;28;20051;-63
2021/07/04 07:36:27;;;;;;;8.32;5.75;;;;;;;20.73;74.73;98043.81;5104412;28;20042;-63
2021/07/04 07:38:52;;;;;;;7.03;5.80;;;;;;;20.69;73.68;98047.66;5104315;28;20020;-63
2021/07/04 07:41:18;;;;;;;8.48;6.32;;;;;;;20.78;76.29;98047.03;5103399;28;20023;-63
2021/07/04 07:43:44;;;;;;;9.88;7.22;;;;;;;20.76;77.37;98032.91;5104067;28;20044;-63
2021/07/04 07:46:09;;;;;;;10.43;6.10;;;;;;;20.70;76.59;98035.16;5104122;28;20042;-63
2021/07/04 07:48:35;;;;;;;6.90;5.80;;;;;;;20.78;75.83;98036.34;5104131;28;20024;-63
2021/07/04 07:51:00;;;;;;;9.30;6.00;;;;;;;20.87;76.46;98030.34;5103768;28;20204;-63
2021/07/04 07:53:26;;;;;;;6.68;5.05;;;;;;;21.09;74.38;98033.25;5104239;28;20028;-63
2021/07/04 07:55:51;;;;;;;6.88;5.15;;;;;;;21.35;71.26;98025.19;5104128;28;20016;-63
2021/07/04 07:58:17;;;;;;;7.88;5.38;;;;;;;21.95;71.13;98036.78;5103998;28;20042;-63
2021/07/04 08:00:42;;;;;;;6.15;4.93;;;;;;;23.20;67.54;98031.44;5104097;28;20020;-63
2021/07/04 08:03:07;;;;;;;6.65;5.35;;;;;;;23.41;67.54;98031.56;5104119;28;20326;-63
2021/07/04 08:05:33;;;;;;;7.05;4.80;;;;;;;23.03;65.46;98028.38;5104285;28;20028;-63
2021/07/04 08:07:58;;;;;;;10.73;6.22;;;;;;;22.67;67.66;98039.31;5104028;28;20066;-63
2021/07/04 08:10:24;;;;;;;7.57;5.55;;;;;;;22.66;70.51;98034.91;5104010;28;20015;-63
2021/07/04 08:12:49;;;;;;;7.35;5.45;;;;;;;22.84;69.38;98028.09;5103898;28;20034;-63
2021/07/04 08:15:15;;;;;;;6.63;4.97;;;;;;;22.74;69.99;98029.78;5103036;28;20020;-63
2021/07/04 08:17:40;;;;;;;6.57;4.85;;;;;;;22.75;68.33;98031.53;5103843;28;20019;-63
2021/07/04 08:20:07;;;;;;;6.82;4.82;;;;;;;22.60;68.17;98024.66;5102962;28;20027;-63
2021/07/04 08:22:33;;;;;;;7.03;4.63;;;;;;;22.23;66.92;98015.84;5103080;28;20023;-63
2021/07/04 08:24:58;;;;;;;12.18;4.97;;;;;;;22.03;68.80;98012.97;5102642;28;20027;-63
2021/07/04 08:27:24;;;;;;;5.75;4.70;;;;;;;21.82;67.95;98006.50;5103522;28;20016;-63
2021/07/04 08:29:49;;;;;;;8.00;5.00;;;;;;;21.64;70.77;98010.53;5102555;28;20337;-63
2021/07/04 08:32:15;;;;;;;9.38;5.05;;;;;;;21.56;72.20;98002.19;5103690;28;20050;-63
2021/07/04 08:34:41;;;;;;;6.55;4.80;;;;;;;21.44;70.91;97997.72;5103672;28;20242;-63
2021/07/04 08:37:06;;;;;;;8.30;6.05;;;;;;;21.40;74.37;97997.13;5103717;28;20139;-63
2021/07/04 08:39:31;;;;;;;8.45;6.03;;;;;;;21.19;74.42;97994.16;5102227;28;20036;-63
2021/07/04 08:41:57;;;;;;;8.02;5.93;;;;;;;21.37;73.25;97981.28;5106976;28;20008;-63
2021/07/04 08:44:23;;;;;;;7.88;6.03;;;;;;;21.35;73.66;97988.53;5107447;28;20024;-63
2021/07/04 08:46:48;;;;;;;8.80;6.07;;;;;;;21.19;72.81;97994.16;5107488;28;20023;-63
2021/07/04 08:49:14;;;;;;;10.05;6.05;;;;;;;21.47;73.30;97981.44;5107338;28;20027;-63
2021/07/04 08:51:39;;;;;;;7.85;5.78;;;;;;;21.45;71.43;97988.75;5107163;28;20082;-63
2021/07/04 08:54:05;;;;;;;10.27;5.50;;;;;;;21.53;72.79;97984.53;5107351;28;20095;-63
2021/07/04 08:56:31;;;;;;;8.90;6.15;;;;;;;21.62;70.88;97989.22;5107446;28;20064;-63
2021/07/04 08:58:56;;;;;;;8.02;5.63;;;;;;;21.53;71.67;97983.66;5107381;28;20098;-63
2021/07/04 09:01:26;;;;;;;7.93;5.55;;;;;;;21.53;71.79;97986.34;5107260;28;20023;-63
2021/07/04 09:04:06;;;;;;;8.20;5.60;;;;;;;21.51;73.28;97986.47;5107162;28;20103;-63
2021/07/04 09:06:36;;;;;;;10.20;5.95;;;;;;;21.33;74.20;97976.25;5107173;28;20249;-63
2021/07/04 09:09:18;;;;;;;8.10;6.15;;;;;;;21.06;76.11;97981.75;5107068;28;20035;-63
2021/07/04 09:12:05;;;;;;;6.70;5.50;;;;;;;21.17;77.33;97980.03;5106999;28;20046;-63
2021/07/04 09:14:38;;;;;;;9.52;6.40;;;;;;;21.21;78.78;97980.66;5106904;28;20019;-63
2021/07/04 09:17:06;;;;;;;12.00;6.70;;;;;;;21.27;80.06;97977.56;5106791;28;20016;-62
2021/07/04 09:19:32;;;;;;;8.13;6.57;;;;;;;21.26;80.41;97979.38;5106849;28;20016;-62
2021/07/04 09:22:02;;;;;;;8.88;6.32;;;;;;;21.03;76.29;97988.19;5101922;28;20220;-63
2021/07/04 09:24:34;;;;;;;10.50;7.53;;;;;;;21.11;82.51;97980.47;5097127;28;20035;-63
2021/07/04 09:27:01;;;;;;;8.05;6.43;;;;;;;21.23;81.17;97973.41;5108231;28;20023;-63
2021/07/04 09:29:40;;;;;;;7.28;5.60;;;;;;;21.07;76.36;97968.28;5105722;28;20015;-63
2021/07/04 09:32:13;;;;;;;8.13;6.43;;;;;;;20.95;80.62;97976.34;5105914;28;20222;-63
2021/07/04 09:34:39;;;;;;;8.45;6.28;;;;;;;20.89;80.69;97980.25;5105687;28;20020;-63
2021/07/04 09:37:04;;;;;;;11.07;7.32;;;;;;;21.02;81.27;97986.50;5105884;28;20024;-63
2021/07/04 09:39:30;;;;;;;11.13;6.70;;;;;;;20.88;80.48;97994.59;5105147;28;20314;-63
2021/07/04 09:42:08;;;;;;;10.20;6.65;;;;;;;20.94;79.08;97985.31;5105480;28;20023;-63
2021/07/04 09:44:35;;;;;;;9.63;6.47;;;;;;;20.83;78.75;97991.41;5105504;28;20249;-63
2021/07/04 09:47:30;;;;;;;8.65;6.82;;;;;;;20.65;79.31;97987.34;5105402;28;20070;-63
2021/07/04 09:50:05;;;;;;;10.65;6.70;;;;;;;20.51;79.93;97989.25;5096355;28;20039;-63
2021/07/04 09:52:30;;;;;;;9.55;6.03;;;;;;;20.47;79.77;97987.78;5104231;28;20227;-63
2021/07/04 09:55:06;;;;;;;9.85;6.80;;;;;;;20.45;80.88;97987.00;5105542;28;20016;-63
2021/07/04 09:58:07;;;;;;;8.60;6.45;;;;;;;20.39;82.76;97974.94;5105457;28;20020;-63
2021/07/04 10:00:41;;;;;;;13.48;7.00;;;;;;;20.32;83.12;97967.44;5105412;28;20024;-63
2021/07/04 10:03:13;;;;;;;10.18;6.78;;;;;;;20.09;81.67;97965.44;5105142;28;20048;-63
2021/07/04 10:05:55;;;;;;;8.73;5.85;;;;;;;20.07;81.77;97962.88;5104918;28;20020;-63
2021/07/04 10:08:26;;;;;;;9.13;6.03;;;;;;;19.99;82.01;97946.50;5105048;28;20059;-63
2021/07/04 10:10:57;;;;;;;9.25;7.15;;;;;;;19.89;85.62;97942.75;5104983;28;20019;-63
2021/07/04 10:13:23;;;;;;;11.70;6.72;;;;;;;19.90;82.79;97931.09;5104942;28;20024;-63
2021/07/04 10:15:49;;;;;;;10.77;7.03;;;;;;;19.88;81.89;97929.50;5104884;28;20215;-63
2021/07/04 10:18:16;;;;;;;11.32;6.40;;;;;;;19.73;82.34;97930.50;5104830;28;20249;-63
2021/07/04 10:20:42;;;;;;;13.50;6.78;;;;;;;19.74;83.86;97933.09;5104609;28;20207;-63
2021/07/04 10:23:13;;;;;;;11.32;7.07;;;;;;;19.78;85.55;97937.28;5104741;28;20083;-63
2021/07/04 10:25:39;;;;;;;9.32;6.55;;;;;;;19.80;85.89;97938.00;5104957;28;20024;-63
2021/07/04 10:28:05;;;;;;;9.18;6.22;;;;;;;19.81;86.17;97939.75;5104632;28;20062;-63
2021/07/04 10:30:32;;;;;;;8.27;6.38;;;;;;;19.72;86.67;97940.38;5104576;28;20032;-63
2021/07/04 10:33:14;;;;;;;8.80;5.60;;;;;;;19.80;85.35;97932.66;5104071;28;20249;-63
2021/07/04 10:35:58;;;;;;;6.57;5.50;;;;;;;19.92;81.37;97939.88;5104514;28;20020;-62
2021/07/04 10:38:23;;;;;;;11.05;5.38;;;;;;;19.97;83.24;97932.41;5104441;28;20024;-63
2021/07/04 10:40:49;;;;;;;9.00;5.55;;;;;;;20.11;79.56;97943.00;5104383;28;20031;-63
2021/07/04 10:43:51;;;;;;;6.97;5.43;;;;;;;20.18;82.66;97938.97;5104260;28;20019;-62
2021/07/04 10:46:18;;;;;;;7.15;6.00;;;;;;;20.15;81.53;97949.88;5103853;28;20091;-62
2021/07/04 10:48:57;;;;;;;12.90;7.00;;;;;;;20.24;84.46;97948.38;5104221;28;20047;-62
2021/07/04 10:51:23;;;;;;;8.60;5.43;;;;;;;20.14;82.36;97945.50;5103973;28;20082;-62
2021/07/04 10:53:56;;;;;;;9.38;5.63;;;;;;;20.19;82.69;97940.69;5104162;28;20048;-62
2021/07/04 10:56:40;;;;;;;10.57;6.63;;;;;;;20.20;83.83;97942.41;5104097;28;20050;-62
2021/07/04 10:59:14;;;;;;;9.18;6.30;;;;;;;20.15;79.98;97947.19;5103673;28;20135;-62
2021/07/04 11:01:53;;;;;;;8.93;6.07;;;;;;;20.03;78.92;97942.66;5104016;28;20016;-62
2021/07/04 11:04:27;;;;;;;11.95;6.57;;;;;;;19.91;82.94;97940.84;5103143;28;20049;-62
2021/07/04 11:06:54;;;;;;;11.13;7.07;;;;;;;19.81;85.34;97944.22;5103879;28;20023;-63
2021/07/04 11:09:19;;;;;;;10.85;7.05;;;;;;;19.88;86.12;97946.38;5103852;28;20038;-62
2021/07/04 11:11:45;;;;;;;10.88;7.43;;;;;;;19.98;86.74;97936.78;5103330;28;20323;-62
2021/07/04 11:14:10;;;;;;;11.07;7.93;;;;;;;20.16;87.56;97932.91;5103771;28;20094;-63
2021/07/04 11:16:36;;;;;;;11.68;7.15;;;;;;;20.49;85.56;97925.19;5103752;28;20047;-62
2021/07/04 11:19:07;;;;;;;9.13;7.07;;;;;;;20.81;83.13;97923.78;5103989;28;20180;-63
2021/07/04 11:21:50;;;;;;;8.18;7.13;;;;;;;21.13;83.28;97914.31;5103623;28;20044;-63
2021/07/04 11:24:21;;;;;;;7.65;5.90;;;;;;;21.33;79.59;97927.09;5106083;28;20329;-63
2021/07/04 11:27:19;;;;;;;8.07;6.15;;;;;;;21.51;78.64;97921.34;5103599;28;20027;-63
2021/07/04 11:30:20;;;;;;;10.82;5.90;;;;;;;21.87;78.86;97934.69;5103537;28;20315;-63